Aviation Digital Data Service (ADDS)

Output produced by METARs form (0118 UTC 01 December 2022)
found at http://aviationweather.gov/metar/data/
 
KHOB 302320Z 0100/0124 12009KT P6SM SCT250 
     FM011600 18011KT P6SM FEW250